Startpagina
METAR-TAF:

METAR-TAF

Vliegvelden :

Luchthaven Sjpakovskoje

Stavropol, Rusland

breedte: 45-20N, lengte: 042-00E, hoogte: 453 m

Actueel weer

Dit bericht is 23 minuten geleden gemaakt, om 18:00 UTC
Wind 6 kt uit het oostnoordoosten
Temperatuur -2°C
Vochtigheid 93%
Druk 1026 hPa
Zicht: 3000 m
Geheel bewolkt op 200 ft
(lichte) motsneeuw, nevel, mistbanken

METAR: URMT 181800Z 07003MPS 3000 -SG BR BCFG OVC002 M02/M03 Q1026 R07/290055 NOSIG RMK QBB080 OBST OBSC QFE729

Tijdstip: 22:23 (18:23 UTC)

Verwachting

Dit bericht is 1 uur en het 23 minuten geleden gemaakt, om 17:00 UTC
Verwachting geldig van 18 om 18 UTC tot 19 om 03 UTC
Wind 6 kt uit het oostnoordoosten met uitschieters tot 16 kt
Zicht: 3100 m
Geheel bewolkt op 400 ft
lichte sneeuw, nevel
Tijdelijke
van 18 om 18 UTC tot 18 om 24 UTC
Zicht: 0300 m
Geheel bewolkt op 200 ft
onderkoelde motregen, onderkoelde mist

TAF: URMT 181700Z 1818/1903 07003G08MPS 3100 -SN BR OVC004 TEMPO 1818/1824 0300 FZDZ FZFG OVC002

Waarnemingen en weersverwachtingen van meer dan 4000 vliegvelden (METAR en TAF).

De beschikbare stations zijn de gele en rode punten op de kaart.

Ga met uw muis naar het station om de naam te zien.

Klik dan om waarnemingen en weersverwachtingen te zien.

kaart wijzigen: klik op de groene knoppen met een zwart kruis om in te zoomen, op de groene knop met een streepje om uit te zoomen of op de groene pijlen voor aangrenzende kaarten.


METAR-TAF: